createdAt,value
2019-01-13T00:01:11.481Z,3.10
2019-01-13T00:03:40.634Z,2.92
2019-01-13T00:06:09.798Z,2.75
2019-01-13T00:08:38.999Z,3.20
2019-01-13T00:11:08.173Z,3.08
2019-01-13T00:13:37.743Z,3.20
2019-01-13T00:16:06.988Z,3.30
2019-01-13T00:18:36.220Z,3.05
2019-01-13T00:21:05.827Z,2.52
2019-01-13T00:23:35.010Z,2.80
2019-01-13T00:26:04.303Z,2.95
2019-01-13T00:28:33.531Z,2.95
2019-01-13T00:31:02.735Z,3.02
2019-01-13T00:33:31.883Z,4.37
2019-01-13T00:36:01.051Z,2.90
2019-01-13T00:38:30.226Z,3.55
2019-01-13T00:40:59.378Z,3.12
2019-01-13T00:43:29.374Z,3.08
2019-01-13T00:45:58.573Z,3.30
2019-01-13T00:48:28.377Z,2.92
2019-01-13T00:50:57.548Z,3.22
2019-01-13T00:53:26.795Z,3.00
2019-01-13T00:55:55.942Z,3.50
2019-01-13T00:58:25.122Z,2.92
2019-01-13T01:00:54.320Z,2.62
2019-01-13T01:03:23.535Z,2.70
2019-01-13T01:05:53.825Z,2.62
2019-01-13T01:08:23.250Z,2.87
2019-01-13T01:10:52.424Z,2.77
2019-01-13T01:13:21.645Z,2.62
2019-01-13T01:15:51.068Z,2.50
2019-01-13T01:18:20.220Z,2.00
2019-01-13T01:20:49.391Z,2.05
2019-01-13T01:23:18.572Z,2.67
2019-01-13T01:25:47.867Z,2.12
2019-01-13T01:28:17.119Z,2.87
2019-01-13T01:30:46.631Z,2.50
2019-01-13T01:33:15.783Z,2.35
2019-01-13T01:35:45.353Z,3.20
2019-01-13T01:38:15.164Z,2.20
2019-01-13T01:40:44.359Z,2.27
2019-01-13T01:43:13.506Z,2.60
2019-01-13T01:45:42.683Z,1.90
2019-01-13T01:48:11.939Z,2.30
2019-01-13T01:50:41.366Z,2.47
2019-01-13T01:53:10.549Z,2.33
2019-01-13T01:55:39.774Z,2.67
2019-01-13T01:58:08.958Z,2.30
2019-01-13T02:00:40.750Z,2.60
2019-01-13T02:03:09.333Z,2.62
2019-01-13T02:05:38.986Z,1.90
2019-01-13T02:08:08.178Z,2.12
2019-01-13T02:10:37.351Z,2.58
2019-01-13T02:13:06.606Z,2.17
2019-01-13T02:15:35.759Z,2.10
2019-01-13T02:18:04.906Z,2.08
2019-01-13T02:20:34.110Z,2.00
2019-01-13T02:23:03.723Z,1.60
2019-01-13T02:25:32.988Z,2.08
2019-01-13T02:28:02.163Z,2.22
2019-01-13T02:30:31.387Z,1.92
2019-01-13T02:33:00.531Z,1.57
2019-01-13T02:35:29.699Z,2.33
2019-01-13T02:37:59.065Z,2.40
2019-01-13T02:40:28.216Z,2.22
2019-01-13T02:42:57.474Z,2.62
2019-01-13T02:45:27.574Z,2.17
2019-01-13T02:47:56.796Z,2.12
2019-01-13T02:50:27.373Z,2.60
2019-01-13T02:52:56.608Z,2.67
2019-01-13T02:55:25.846Z,2.40
2019-01-13T02:57:55.042Z,3.00
2019-01-13T03:00:24.855Z,2.17
2019-01-13T03:02:54.174Z,2.50
2019-01-13T03:05:23.354Z,2.15
2019-01-13T03:07:53.075Z,2.67
2019-01-13T03:10:23.174Z,2.20
2019-01-13T03:12:52.422Z,2.30
2019-01-13T03:15:22.902Z,2.33
2019-01-13T03:17:52.319Z,2.80
2019-01-13T03:20:22.021Z,2.87
2019-01-13T03:22:51.244Z,2.35
2019-01-13T03:25:21.124Z,2.42
2019-01-13T03:27:50.386Z,2.52
2019-01-13T03:30:22.759Z,2.35
2019-01-13T03:32:52.025Z,2.62
2019-01-13T03:35:21.277Z,2.85
2019-01-13T03:37:50.537Z,2.35
2019-01-13T03:40:21.715Z,2.20
2019-01-13T03:42:50.939Z,2.40
2019-01-13T03:45:20.174Z,2.77
2019-01-13T03:47:49.354Z,3.00
2019-01-13T03:50:20.341Z,2.45
2019-01-13T03:52:53.255Z,2.42
2019-01-13T03:55:22.247Z,3.35
2019-01-13T03:57:51.448Z,3.05
2019-01-13T04:00:22.369Z,3.55
2019-01-13T04:02:51.646Z,2.58
2019-01-13T04:05:21.878Z,2.75
2019-01-13T04:07:51.039Z,2.55
2019-01-13T04:10:21.467Z,2.70
2019-01-13T04:12:50.714Z,3.05
2019-01-13T04:15:32.259Z,3.22
2019-01-13T04:18:01.448Z,3.30
2019-01-13T04:20:30.674Z,3.30
2019-01-13T04:22:59.838Z,3.27
2019-01-13T04:25:29.499Z,3.40
2019-01-13T04:27:58.723Z,4.08
2019-01-13T04:30:28.136Z,3.60
2019-01-13T04:32:58.363Z,2.60
2019-01-13T04:35:27.520Z,3.15
2019-01-13T04:37:56.667Z,3.90
2019-01-13T04:40:26.154Z,3.55
2019-01-13T04:42:55.304Z,3.65
2019-01-13T04:45:24.533Z,2.90
2019-01-13T04:47:55.014Z,3.27
2019-01-13T04:50:24.243Z,3.20
2019-01-13T04:52:53.388Z,3.65
2019-01-13T04:55:22.578Z,3.10
2019-01-13T04:57:52.056Z,4.00
2019-01-13T05:00:23.020Z,3.80
2019-01-13T05:02:52.175Z,3.42
2019-01-13T05:05:21.362Z,3.83
2019-01-13T05:07:50.562Z,3.27
2019-01-13T05:10:22.488Z,3.30
2019-01-13T05:12:51.924Z,2.90
2019-01-13T05:15:21.105Z,2.80
2019-01-13T05:17:50.350Z,2.15
2019-01-13T05:20:20.350Z,1.77
2019-01-13T05:22:49.493Z,1.62
2019-01-13T05:25:18.668Z,2.30
2019-01-13T05:27:47.827Z,1.82
2019-01-13T05:30:19.141Z,1.60
2019-01-13T05:32:48.809Z,1.80
2019-01-13T05:35:18.036Z,1.32
2019-01-13T05:37:49.989Z,1.70
2019-01-13T05:40:19.745Z,1.40
2019-01-13T05:42:48.987Z,1.70
2019-01-13T05:45:18.810Z,1.87
2019-01-13T05:47:48.075Z,1.92
2019-01-13T05:50:17.499Z,1.92
2019-01-13T05:52:47.856Z,2.17
2019-01-13T05:55:19.675Z,2.10
2019-01-13T05:57:48.936Z,2.50
2019-01-13T06:00:23.438Z,2.50
2019-01-13T06:02:52.674Z,2.85
2019-01-13T06:05:22.167Z,3.15
2019-01-13T06:07:51.411Z,2.87
2019-01-13T06:10:20.832Z,2.80
2019-01-13T06:12:49.975Z,3.35
2019-01-13T06:15:21.154Z,3.30
2019-01-13T06:17:50.414Z,3.15
2019-01-13T06:20:21.408Z,3.02
2019-01-13T06:22:50.635Z,2.55
2019-01-13T06:25:19.951Z,2.98
2019-01-13T06:27:49.170Z,3.37
2019-01-13T06:30:20.212Z,2.98
2019-01-13T06:32:49.890Z,2.55
2019-01-13T06:35:19.105Z,3.25
2019-01-13T06:37:48.547Z,3.25
2019-01-13T06:40:18.476Z,2.22
2019-01-13T06:42:47.622Z,2.35
2019-01-13T06:45:22.133Z,1.75
2019-01-13T06:47:51.567Z,2.05
2019-01-13T06:50:20.786Z,1.45
2019-01-13T06:52:49.992Z,1.50
2019-01-13T06:55:19.134Z,1.32
2019-01-13T06:57:50.341Z,1.40
2019-01-13T07:00:24.675Z,1.67
2019-01-13T07:02:53.818Z,1.65
2019-01-13T07:05:22.958Z,1.40
2019-01-13T07:07:52.420Z,1.55
2019-01-13T07:10:21.770Z,0.98
2019-01-13T07:12:51.338Z,1.32
2019-01-13T07:15:20.794Z,0.75
2019-01-13T07:17:49.939Z,0.80
2019-01-13T07:20:19.562Z,0.60
2019-01-13T07:22:49.058Z,0.55
2019-01-13T07:25:18.210Z,0.65
2019-01-13T07:27:47.593Z,0.50
2019-01-13T07:30:22.330Z,0.50
2019-01-13T07:32:51.599Z,0.40
2019-01-13T07:35:20.762Z,0.33
2019-01-13T07:37:49.973Z,0.37
2019-01-13T07:40:20.231Z,0.28
2019-01-13T07:42:49.491Z,0.30
2019-01-13T07:45:20.714Z,0.40
2019-01-13T07:47:49.854Z,0.35
2019-01-13T07:50:19.193Z,0.42
2019-01-13T07:52:48.759Z,0.40
2019-01-13T07:55:19.622Z,0.40
2019-01-13T07:57:53.902Z,0.70
2019-01-13T08:00:28.352Z,0.50
2019-01-13T08:02:57.593Z,0.72
2019-01-13T08:05:27.059Z,0.40
2019-01-13T08:07:56.274Z,0.50
2019-01-13T08:10:25.446Z,0.55
2019-01-13T08:12:54.598Z,0.70
2019-01-13T08:15:23.739Z,0.40
2019-01-13T08:17:53.563Z,0.50
2019-01-13T08:20:25.958Z,0.90
2019-01-13T08:22:56.078Z,0.60
2019-01-13T08:25:25.496Z,0.62
2019-01-13T08:27:54.637Z,0.70
2019-01-13T08:30:23.780Z,1.32
2019-01-13T08:32:53.378Z,1.30
2019-01-13T08:35:22.527Z,1.60
2019-01-13T08:37:51.666Z,1.52
2019-01-13T08:40:20.894Z,1.77
2019-01-13T08:42:50.038Z,1.40
2019-01-13T08:45:19.342Z,1.35
2019-01-13T08:47:48.757Z,1.80
2019-01-13T08:50:19.487Z,1.32
2019-01-13T08:52:48.822Z,1.72
2019-01-13T08:55:18.000Z,1.50
2019-01-13T08:57:47.214Z,1.60
2019-01-13T09:00:24.456Z,2.55
2019-01-13T09:02:53.609Z,1.80
2019-01-13T09:05:23.056Z,1.30
2019-01-13T09:10:16.917Z,1.55
2019-01-13T09:12:46.132Z,1.45
2019-01-13T09:15:19.278Z,1.17
2019-01-13T09:17:48.647Z,1.20
2019-01-13T09:20:19.959Z,1.30
2019-01-13T09:22:49.683Z,1.72
2019-01-13T09:25:18.858Z,1.60
2019-01-13T09:27:48.035Z,1.42
2019-01-13T09:30:26.704Z,1.05
2019-01-13T09:32:55.871Z,1.45
2019-01-13T09:35:25.628Z,1.32
2019-01-13T09:37:54.810Z,1.72
2019-01-13T09:40:26.139Z,1.40
2019-01-13T09:42:55.666Z,1.75
2019-01-13T09:45:25.437Z,1.42
2019-01-13T09:47:54.707Z,1.00
2019-01-13T09:50:24.419Z,1.05
2019-01-13T09:52:54.112Z,1.27
2019-01-13T09:55:24.632Z,0.90
2019-01-13T09:57:53.871Z,1.10
2019-01-13T10:00:28.944Z,0.70
2019-01-13T10:02:58.278Z,0.50
2019-01-13T10:05:27.443Z,0.78
2019-01-13T10:07:56.790Z,0.62
2019-01-13T10:10:25.963Z,0.75
2019-01-13T10:12:55.203Z,0.90
2019-01-13T10:15:26.090Z,1.10
2019-01-13T10:17:55.655Z,0.70
2019-01-13T10:20:25.019Z,0.68
2019-01-13T10:22:54.187Z,0.62
2019-01-13T10:25:23.332Z,0.88
2019-01-13T10:27:52.472Z,1.05
2019-01-13T10:30:26.929Z,1.10
2019-01-13T10:32:56.218Z,0.90
2019-01-13T10:35:25.508Z,0.90
2019-01-13T10:37:54.681Z,0.70
2019-01-13T10:40:25.762Z,1.12
2019-01-13T10:42:54.918Z,1.22
2019-01-13T10:45:24.351Z,1.32
2019-01-13T10:47:53.502Z,1.20
2019-01-13T10:50:25.169Z,1.42
2019-01-13T10:52:55.531Z,1.50
2019-01-13T10:55:24.704Z,1.40
2019-01-13T10:57:53.893Z,1.15
2019-01-13T11:00:31.681Z,1.20
2019-01-13T11:03:02.749Z,1.27
2019-01-13T11:05:32.074Z,1.07
2019-01-13T11:08:01.303Z,1.12
2019-01-13T11:10:30.683Z,1.72
2019-01-13T11:12:59.993Z,1.50
2019-01-13T11:15:29.231Z,1.92
2019-01-13T11:17:58.862Z,1.80
2019-01-13T11:20:33.927Z,2.02
2019-01-13T11:23:03.251Z,1.47
2019-01-13T11:25:32.400Z,0.95
2019-01-13T11:28:01.586Z,0.80
2019-01-13T11:30:30.759Z,0.88
2019-01-13T11:33:00.299Z,0.85
2019-01-13T11:35:29.595Z,1.20
2019-01-13T11:37:58.939Z,1.17
2019-01-13T11:40:28.528Z,1.20
2019-01-13T11:42:58.045Z,1.32
2019-01-13T11:45:28.295Z,1.07
2019-01-13T11:47:57.462Z,1.20
2019-01-13T11:50:26.982Z,1.02
2019-01-13T11:52:56.583Z,1.00
2019-01-13T11:55:26.037Z,1.05
2019-01-13T11:57:55.279Z,1.10
2019-01-13T12:00:34.231Z,1.20
2019-01-13T12:03:06.874Z,1.47
2019-01-13T12:05:34.330Z,1.52
2019-01-13T12:08:03.677Z,1.60
2019-01-13T12:10:32.849Z,1.85
2019-01-13T12:13:02.048Z,1.45
2019-01-13T12:15:31.214Z,1.45
2019-01-13T12:18:00.555Z,1.37
2019-01-13T12:20:30.375Z,1.47
2019-01-13T12:23:00.440Z,1.50
2019-01-13T12:25:30.929Z,1.47
2019-01-13T12:28:00.173Z,1.20
2019-01-13T12:30:31.189Z,1.20
2019-01-13T12:33:00.793Z,2.58
2019-01-13T12:35:29.971Z,4.53
2019-01-13T12:37:59.139Z,2.30
2019-01-13T12:40:30.581Z,1.02
2019-01-13T12:43:00.104Z,1.82
2019-01-13T12:45:29.278Z,1.60
2019-01-13T12:47:58.515Z,1.50
2019-01-13T12:50:29.702Z,1.40
2019-01-13T12:52:58.852Z,1.35
2019-01-13T12:55:28.018Z,1.10
2019-01-13T12:57:57.292Z,1.02
2019-01-13T13:00:26.523Z,1.10
2019-01-13T13:02:57.475Z,1.20
2019-01-13T13:05:26.929Z,1.20
2019-01-13T13:07:56.523Z,0.98
2019-01-13T13:10:28.658Z,1.27
2019-01-13T13:12:57.810Z,1.20
2019-01-13T13:15:27.470Z,1.00
2019-01-13T13:17:56.687Z,1.10
2019-01-13T13:20:25.836Z,1.27
2019-01-13T13:22:55.260Z,1.50
2019-01-13T13:25:31.570Z,1.40
2019-01-13T13:27:56.099Z,1.30
2019-01-13T13:30:29.053Z,1.35
2019-01-13T13:32:58.368Z,1.67
2019-01-13T13:35:27.637Z,1.57
2019-01-13T13:37:56.886Z,1.70
2019-01-13T13:40:27.707Z,1.20
2019-01-13T13:42:57.333Z,1.42
2019-01-13T13:45:27.275Z,1.85
2019-01-13T13:47:56.453Z,1.52
2019-01-13T13:50:26.392Z,1.60
2019-01-13T13:52:55.668Z,1.70
2019-01-13T13:55:25.126Z,1.50
2019-01-13T13:57:54.374Z,1.32
2019-01-13T14:00:28.182Z,1.10
2019-01-13T14:02:58.365Z,1.25
2019-01-13T14:05:27.653Z,1.10
2019-01-13T14:07:56.843Z,1.25
2019-01-13T14:10:32.159Z,1.40
2019-01-13T14:13:01.354Z,1.60
2019-01-13T14:15:31.575Z,1.45
2019-01-13T14:18:01.279Z,0.90
2019-01-13T14:20:30.467Z,1.20
2019-01-13T14:23:00.085Z,1.25
2019-01-13T14:25:29.317Z,1.22
2019-01-13T14:27:58.497Z,0.90
2019-01-13T14:30:29.038Z,1.35
2019-01-13T14:32:58.219Z,1.22
2019-01-13T14:35:27.394Z,0.90
2019-01-13T14:37:56.604Z,1.57
2019-01-13T14:40:26.051Z,1.42
2019-01-13T14:42:55.479Z,1.20
2019-01-13T14:45:25.421Z,1.90
2019-01-13T14:47:54.657Z,1.60
2019-01-13T14:50:26.281Z,2.52
2019-01-13T14:52:56.047Z,1.67
2019-01-13T14:55:25.907Z,1.00
2019-01-13T14:57:55.098Z,0.80
2019-01-13T15:00:26.564Z,0.95
2019-01-13T15:02:56.295Z,1.10
2019-01-13T15:05:25.706Z,1.22
2019-01-13T15:07:54.875Z,1.62
2019-01-13T15:10:25.005Z,1.70
2019-01-13T15:12:54.713Z,1.80
2019-01-13T15:15:24.279Z,2.12
2019-01-13T15:17:53.503Z,1.55
2019-01-13T15:20:23.488Z,2.35
2019-01-13T15:22:53.471Z,2.40
2019-01-13T15:25:24.857Z,2.37
2019-01-13T15:27:54.718Z,2.00
2019-01-13T15:30:29.835Z,1.98
2019-01-13T15:32:59.503Z,3.05
2019-01-13T15:35:28.748Z,3.42
2019-01-13T15:37:57.930Z,2.80
2019-01-13T15:40:27.075Z,3.35
2019-01-13T15:42:56.539Z,2.95
2019-01-13T15:45:25.751Z,3.10
2019-01-13T15:47:54.963Z,3.10
2019-01-13T15:50:29.417Z,3.08
2019-01-13T15:52:58.665Z,3.02
2019-01-13T15:55:27.841Z,3.58
2019-01-13T15:57:57.453Z,3.22
2019-01-13T16:00:31.510Z,3.50
2019-01-13T16:03:01.841Z,2.90
2019-01-13T16:05:31.074Z,3.33
2019-01-13T16:08:00.326Z,3.85
2019-01-13T16:10:29.602Z,4.58
2019-01-13T16:12:58.830Z,3.75
2019-01-13T16:15:34.211Z,3.75
2019-01-13T16:17:59.190Z,5.47
2019-01-13T16:20:35.835Z,3.75
2019-01-13T16:23:05.090Z,3.77
2019-01-13T16:25:34.236Z,4.70
2019-01-13T16:28:03.398Z,5.62
2019-01-13T16:30:33.327Z,5.35
2019-01-13T16:33:02.506Z,5.08
2019-01-13T16:35:32.915Z,6.00
2019-01-13T16:38:02.178Z,6.20
2019-01-13T16:40:31.599Z,5.08
2019-01-13T16:43:01.011Z,7.03
2019-01-13T16:45:31.286Z,5.62
2019-01-13T16:48:29.953Z,5.55
2019-01-13T16:50:59.305Z,5.33
2019-01-13T16:53:28.528Z,7.12
2019-01-13T16:55:57.995Z,4.97
2019-01-13T16:58:27.199Z,5.67
2019-01-13T17:03:38.940Z,4.55
2019-01-13T17:06:08.087Z,4.75
2019-01-13T17:08:38.532Z,4.55
2019-01-13T17:11:07.774Z,5.25
2019-01-13T17:13:36.932Z,4.62
2019-01-13T17:16:06.650Z,4.67
2019-01-13T17:18:35.898Z,4.28
2019-01-13T17:21:05.628Z,4.60
2019-01-13T17:23:35.376Z,3.62
2019-01-13T17:26:04.547Z,4.33
2019-01-13T17:28:33.711Z,3.83
2019-01-13T17:31:02.885Z,4.28
2019-01-13T17:33:32.142Z,4.95
2019-01-13T17:36:01.298Z,4.87
2019-01-13T17:38:30.546Z,3.83
2019-01-13T17:41:00.145Z,3.70
2019-01-13T17:43:29.369Z,4.25
2019-01-13T17:45:58.536Z,4.42
2019-01-13T17:48:27.805Z,4.15
2019-01-13T17:50:57.314Z,3.05
2019-01-13T17:53:26.589Z,3.05
2019-01-13T17:55:56.037Z,3.10
2019-01-13T17:58:25.521Z,3.92
2019-01-13T18:00:56.309Z,3.40
2019-01-13T18:03:31.399Z,3.42
2019-01-13T18:06:00.744Z,3.83
2019-01-13T18:08:30.135Z,6.50
2019-01-13T18:10:59.801Z,5.72
2019-01-13T18:13:29.684Z,4.70
2019-01-13T18:15:59.331Z,7.10
2019-01-13T18:18:29.270Z,4.78
2019-01-13T18:20:58.711Z,8.53
2019-01-13T18:23:28.270Z,3.77
2019-01-13T18:25:57.635Z,9.30
2019-01-13T18:28:27.039Z,6.62
2019-01-13T18:30:56.537Z,13.35
2019-01-13T18:33:26.057Z,6.42
2019-01-13T18:35:55.630Z,5.53
2019-01-13T18:38:24.962Z,9.03
2019-01-13T18:40:54.709Z,5.55
2019-01-13T18:43:24.103Z,5.47
2019-01-13T18:45:53.867Z,3.60
2019-01-13T18:48:23.383Z,7.12
2019-01-13T18:50:52.927Z,6.10
2019-01-13T18:53:22.427Z,9.18
2019-01-13T18:55:51.794Z,5.08
2019-01-13T18:58:21.216Z,25.20
2019-01-13T19:00:50.686Z,30.30
2019-01-13T19:03:20.047Z,7.92
2019-01-13T19:05:49.454Z,14.90
2019-01-13T19:08:21.284Z,13.15
2019-01-13T19:10:56.703Z,17.40
2019-01-13T19:13:37.989Z,13.83
2019-01-13T19:16:09.366Z,16.17
2019-01-13T19:18:38.966Z,4.42
2019-01-13T19:21:08.943Z,11.50
2019-01-13T19:23:38.549Z,5.95
2019-01-13T19:26:07.875Z,4.40
2019-01-13T19:28:37.657Z,5.70
2019-01-13T19:31:07.174Z,6.33
2019-01-13T19:33:36.571Z,10.30
2019-01-13T19:36:07.627Z,10.60
2019-01-13T19:38:37.069Z,21.82
2019-01-13T19:41:06.544Z,4.85
2019-01-13T19:43:35.929Z,20.02
2019-01-13T19:46:05.773Z,24.15
2019-01-13T19:48:35.165Z,11.63
2019-01-13T19:51:05.444Z,5.83
2019-01-13T19:53:34.984Z,4.12
2019-01-13T19:56:04.755Z,15.18
2019-01-13T19:58:34.183Z,12.20
2019-01-13T20:01:03.621Z,3.45
2019-01-13T20:03:33.167Z,4.17
2019-01-13T20:06:02.590Z,3.60
2019-01-13T20:08:34.797Z,5.45
2019-01-13T20:11:05.650Z,4.92
2019-01-13T20:13:36.449Z,4.37
2019-01-13T20:16:05.887Z,3.95
2019-01-13T20:18:35.340Z,3.77
2019-01-13T20:21:04.807Z,13.22
2019-01-13T20:23:34.622Z,4.20
2019-01-13T20:26:04.029Z,4.45
2019-01-13T20:28:33.365Z,4.42
2019-01-13T20:31:03.137Z,4.30
2019-01-13T20:33:32.467Z,4.25
2019-01-13T20:36:01.867Z,4.55
2019-01-13T20:38:31.227Z,4.40
2019-01-13T20:41:00.743Z,3.58
2019-01-13T20:43:30.084Z,4.50
2019-01-13T20:45:59.512Z,4.03
2019-01-13T20:48:28.956Z,4.20
2019-01-13T20:50:58.378Z,3.20
2019-01-13T20:53:27.862Z,3.02
2019-01-13T20:55:57.266Z,3.55
2019-01-13T20:58:26.605Z,3.70
2019-01-13T21:00:56.264Z,3.70
2019-01-13T21:03:25.739Z,4.22
2019-01-13T21:05:55.069Z,4.25
2019-01-13T21:08:24.916Z,3.83
2019-01-13T21:10:55.610Z,3.50
2019-01-13T21:13:25.593Z,3.35
2019-01-13T21:15:55.671Z,3.15
2019-01-13T21:18:25.100Z,3.42
2019-01-13T21:20:54.608Z,3.15
2019-01-13T21:23:24.081Z,3.42
2019-01-13T21:25:53.508Z,3.60
2019-01-13T21:28:23.011Z,4.28
2019-01-13T21:30:52.342Z,7.37
2019-01-13T21:33:21.707Z,13.32
2019-01-13T21:35:51.104Z,3.67
2019-01-13T21:38:20.523Z,6.00
2019-01-13T21:40:50.188Z,4.03
2019-01-13T21:43:19.689Z,3.37
2019-01-13T21:45:49.091Z,3.52
2019-01-13T21:48:18.444Z,4.20
2019-01-13T21:50:48.188Z,3.62
2019-01-13T21:53:17.627Z,3.67
2019-01-13T21:55:47.153Z,3.17
2019-01-13T21:58:16.582Z,3.65
2019-01-13T22:00:46.396Z,3.62
2019-01-13T22:03:15.816Z,2.50
2019-01-13T22:05:45.184Z,3.15
2019-01-13T22:08:14.791Z,3.08
2019-01-13T22:10:44.282Z,3.05
2019-01-13T22:13:14.034Z,3.12
2019-01-13T22:15:44.451Z,3.55
2019-01-13T22:18:13.774Z,3.37
2019-01-13T22:20:43.262Z,2.67
2019-01-13T22:23:12.593Z,3.22
2019-01-13T22:25:43.706Z,3.17
2019-01-13T22:28:13.084Z,3.00
2019-01-13T22:30:43.648Z,3.05
2019-01-13T22:33:13.068Z,3.80
2019-01-13T22:35:48.127Z,3.37
2019-01-13T22:38:13.528Z,3.42
2019-01-13T22:40:43.007Z,3.00
2019-01-13T22:43:12.554Z,3.98
2019-01-13T22:45:42.123Z,3.17
2019-01-13T22:48:11.652Z,3.77
2019-01-13T22:50:41.119Z,3.12
2019-01-13T22:53:10.613Z,3.85
2019-01-13T22:55:39.984Z,3.35
2019-01-13T22:58:09.719Z,3.08
2019-01-13T23:00:48.979Z,3.22
2019-01-13T23:03:18.928Z,3.47
2019-01-13T23:05:55.399Z,3.22
2019-01-13T23:08:19.974Z,3.42
2019-01-13T23:10:50.085Z,3.27
2019-01-13T23:13:20.104Z,3.25
2019-01-13T23:15:49.921Z,2.75
2019-01-13T23:18:19.327Z,2.83
2019-01-13T23:20:48.816Z,3.30
2019-01-13T23:23:18.245Z,2.62
2019-01-13T23:25:47.688Z,3.00
2019-01-13T23:28:17.174Z,3.08
2019-01-13T23:30:46.960Z,2.85
2019-01-13T23:33:16.300Z,3.10
2019-01-13T23:35:45.646Z,2.45
2019-01-13T23:38:15.434Z,2.90
2019-01-13T23:40:44.916Z,3.12
2019-01-13T23:43:14.711Z,3.65
2019-01-13T23:45:44.161Z,3.98
2019-01-13T23:48:13.643Z,3.45
2019-01-13T23:50:44.723Z,4.20
2019-01-13T23:53:14.888Z,3.15
2019-01-13T23:55:44.230Z,3.20
2019-01-13T23:58:13.623Z,3.50
